Time;durP1;ratioP1;P1;durP2;ratioP2;P2;SDS_P1;SDS_P2;PMS_P1;PMS_P2;Temp;Humidity;BMP_temperature;BMP_pressure;BME280_temperature;BME280_humidity;BME280_pressure;Samples;Min_cycle;Max_cycle;Signal;HPM_P1;HPM_P2
2022/03/03 00:02:11;;;;;;;63.63;29.08;;;2.10;99.90;;;;;;5105317;22;20131;-81
2022/03/03 00:04:37;;;;;;;66.70;28.73;;;2.00;99.90;;;;;;5097872;22;20052;-80
2022/03/03 00:07:03;;;;;;;65.00;28.40;;;1.90;99.90;;;;;;5090215;22;20067;-81
2022/03/03 00:09:29;;;;;;;72.05;29.35;;;1.80;99.90;;;;;;5114878;22;20055;-81
2022/03/03 00:11:55;;;;;;;59.60;27.17;;;2.40;99.90;;;;;;5067719;23;20057;-80
2022/03/03 00:14:27;;;;;;;65.80;29.38;;;1.80;99.90;;;;;;5060911;22;20139;31
2022/03/03 00:16:53;;;;;;;62.03;28.33;;;1.80;99.90;;;;;;5046545;22;20049;-81
2022/03/03 00:19:25;;;;;;;66.82;29.52;;;1.70;99.90;;;;;;5087684;22;20402;-80
2022/03/03 00:21:51;;;;;;;67.38;30.13;;;2.20;99.90;;;;;;5084547;23;20051;-80
2022/03/03 00:24:20;;;;;;;70.55;29.50;;;1.70;99.90;;;;;;5102921;22;20048;-81
2022/03/03 00:26:45;;;;;;;66.47;29.80;;;1.70;99.90;;;;;;5069318;23;20686;-80
2022/03/03 00:29:11;;;;;;;67.32;29.13;;;1.70;99.90;;;;;;5088854;22;20142;-81
2022/03/03 00:31:37;;;;;;;76.88;31.35;;;2.10;99.90;;;;;;5097001;22;20059;-80
2022/03/03 00:34:03;;;;;;;69.88;29.38;;;1.60;99.90;;;;;;5072988;23;20064;-81
2022/03/03 00:36:29;;;;;;;72.57;29.45;;;1.70;99.90;;;;;;5076563;23;20059;-80
2022/03/03 00:38:55;;;;;;;72.00;31.17;;;1.60;99.90;;;;;;5099844;22;20065;-80
2022/03/03 00:41:22;;;;;;;65.47;29.75;;;1.60;99.90;;;;;;5093202;22;20074;-81
2022/03/03 00:43:48;;;;;;;67.88;29.42;;;1.50;99.90;;;;;;5067987;23;20106;-80
2022/03/03 00:46:20;;;;;;;68.70;29.83;;;1.50;99.90;;;;;;5078765;23;20059;-80
2022/03/03 00:48:46;;;;;;;64.70;28.85;;;1.50;99.90;;;;;;5088357;22;20594;-81
2022/03/03 00:51:11;;;;;;;71.03;29.85;;;1.20;99.90;;;;;;5071055;23;20049;-80
2022/03/03 00:53:38;;;;;;;76.70;31.35;;;1.40;99.90;;;;;;5075007;23;20052;-81
2022/03/03 00:56:04;;;;;;;75.05;31.33;;;1.40;99.90;;;;;;5077098;23;20105;-81
2022/03/03 00:58:30;;;;;;;69.00;29.08;;;1.40;99.90;;;;;;5107636;22;20051;-80
2022/03/03 01:00:56;;;;;;;74.95;31.08;;;1.40;99.90;;;;;;5082054;22;20059;-81
2022/03/03 01:03:23;;;;;;;72.97;29.92;;;1.40;99.90;;;;;;5089944;23;20051;-80
2022/03/03 01:05:49;;;;;;;76.32;30.45;;;1.30;99.90;;;;;;5082342;23;20079;-81
2022/03/03 01:10:48;;;;;;;71.55;30.88;;;1.30;99.90;;;;;;5106330;22;20448;-80
2022/03/03 01:13:21;;;;;;;69.68;29.60;;;1.50;99.90;;;;;;5077870;23;20044;-81
2022/03/03 01:15:47;;;;;;;69.20;30.25;;;1.30;99.90;;;;;;5091335;22;20399;-81
2022/03/03 01:18:17;;;;;;;73.32;30.40;;;1.20;99.90;;;;;;5081253;23;20047;-81
2022/03/03 01:20:43;;;;;;;76.60;30.95;;;1.30;99.90;;;;;;5084861;22;20040;-80
2022/03/03 01:23:09;;;;;;;69.90;29.35;;;1.30;99.90;;;;;;5067393;23;20053;-80
2022/03/03 01:25:34;;;;;;;72.32;30.60;;;1.30;99.90;;;;;;5103462;22;20050;-81
2022/03/03 01:28:00;;;;;;;73.38;30.67;;;1.20;99.90;;;;;;5096252;23;20071;-80
2022/03/03 01:30:26;;;;;;;72.65;31.30;;;1.20;99.90;;;;;;5102893;22;20079;-81
2022/03/03 01:32:52;;;;;;;71.75;30.23;;;1.60;99.90;;;;;;5058192;23;20053;-81
2022/03/03 01:35:24;;;;;;;69.38;29.50;;;1.70;99.90;;;;;;5053431;23;20049;-80
2022/03/03 01:37:50;;;;;;;74.82;30.15;;;1.20;99.90;;;;;;5087583;23;20051;-81
2022/03/03 01:40:22;;;;;;;70.97;29.20;;;1.20;99.90;;;;;;5104891;23;20050;-81
2022/03/03 01:42:51;;;;;;;73.20;30.65;;;1.10;99.90;;;;;;5088877;22;20090;-81
2022/03/03 01:45:23;;;;;;;66.55;29.77;;;1.20;99.90;;;;;;5086176;22;20068;-81
2022/03/03 01:47:49;;;;;;;71.47;29.55;;;1.10;99.90;;;;;;5083478;23;20117;-80
2022/03/03 01:50:22;;;;;;;71.72;29.30;;;1.20;99.90;;;;;;5036848;23;1099744;-80
2022/03/03 01:52:48;;;;;;;70.82;29.70;;;1.10;99.90;;;;;;5081552;22;20059;-81
2022/03/03 01:55:21;;;;;;;68.70;29.95;;;1.10;99.90;;;;;;5073937;23;20048;-81
2022/03/03 01:57:50;;;;;;;67.22;29.10;;;1.00;99.90;;;;;;5123638;22;20767;-80
2022/03/03 02:00:22;;;;;;;74.60;29.58;;;1.00;99.90;;;;;;5084701;22;20141;-81
2022/03/03 02:02:47;;;;;;;71.97;29.85;;;1.00;99.90;;;;;;5074163;22;20064;-81
2022/03/03 02:05:19;;;;;;;71.93;28.60;;;1.30;99.90;;;;;;5057823;23;20048;-81
2022/03/03 02:07:45;;;;;;;62.80;28.13;;;0.90;99.90;;;;;;5095185;22;20058;-80
2022/03/03 02:10:11;;;;;;;73.10;28.30;;;0.90;99.90;;;;;;5078617;22;20068;-80
2022/03/03 02:12:37;;;;;;;71.38;27.60;;;0.90;99.90;;;;;;5078579;22;20402;-80
2022/03/03 02:15:04;;;;;;;68.78;28.63;;;0.90;99.90;;;;;;5095814;23;20044;-81
2022/03/03 02:17:30;;;;;;;71.03;29.85;;;0.90;99.90;;;;;;5097173;22;20135;-80
2022/03/03 02:19:57;;;;;;;72.85;29.70;;;0.90;99.90;;;;;;5081937;22;20113;-80
2022/03/03 02:22:26;;;;;;;69.85;28.88;;;0.80;99.90;;;;;;5067842;22;20051;31
2022/03/03 02:24:52;;;;;;;76.90;30.33;;;0.80;99.90;;;;;;5062045;22;20072;-80
2022/03/03 02:27:25;;;;;;;76.75;30.02;;;1.00;99.90;;;;;;5076881;23;20515;-80
2022/03/03 02:29:51;;;;;;;69.93;31.02;;;0.70;99.90;;;;;;5073269;23;20056;-81
2022/03/03 02:32:18;;;;;;;72.63;30.20;;;0.70;99.90;;;;;;5079957;22;20036;-80
2022/03/03 02:34:48;;;;;;;65.88;29.48;;;0.70;99.90;;;;;;5088163;22;20045;-80
2022/03/03 02:37:20;;;;;;;71.28;30.20;;;0.70;99.90;;;;;;5073485;23;20049;-80
2022/03/03 02:39:46;;;;;;;72.55;29.67;;;0.60;99.90;;;;;;5113148;22;20126;-81
2022/03/03 02:42:12;;;;;;;71.30;28.92;;;1.30;99.90;;;;;;5062255;23;20048;-81
2022/03/03 02:44:38;;;;;;;67.18;29.60;;;0.60;99.90;;;;;;5095186;22;20057;-81
2022/03/03 02:47:04;;;;;;;70.03;29.02;;;0.60;99.90;;;;;;5078310;23;20187;-81
2022/03/03 02:49:30;;;;;;;69.78;28.70;;;0.80;99.90;;;;;;5086193;22;20076;-81
2022/03/03 02:51:56;;;;;;;63.60;28.13;;;0.60;99.90;;;;;;5089647;22;20063;-81
2022/03/03 02:54:22;;;;;;;63.17;29.10;;;0.60;99.90;;;;;;5106612;22;20426;-81
2022/03/03 02:59:31;;;;;;;62.03;28.20;;;0.60;99.90;;;;;;5097420;22;20045;-81
2022/03/03 03:01:57;;;;;;;63.03;29.02;;;0.70;99.90;;;;;;5082154;23;20157;-81
2022/03/03 03:04:23;;;;;;;71.22;29.33;;;0.80;99.90;;;;;;5079786;22;20410;-81
2022/03/03 03:06:49;;;;;;;68.10;29.15;;;0.60;99.90;;;;;;5070680;23;20049;-80
2022/03/03 03:09:21;;;;;;;66.13;28.70;;;0.60;99.90;;;;;;5092651;23;20142;-81
2022/03/03 03:11:46;;;;;;;70.32;29.48;;;0.60;99.90;;;;;;5070609;22;20078;-80
2022/03/03 03:14:12;;;;;;;64.57;28.08;;;0.50;99.90;;;;;;5097745;23;20441;-81
2022/03/03 03:16:38;;;;;;;61.13;28.05;;;0.70;99.90;;;;;;5079086;22;20072;-81
2022/03/03 03:19:04;;;;;;;65.03;28.08;;;0.80;99.90;;;;;;5081606;23;20052;-80
2022/03/03 03:21:29;;;;;;;66.85;27.95;;;0.50;99.90;;;;;;5087701;22;20048;-80
2022/03/03 03:23:55;;;;;;;64.53;28.15;;;0.50;99.90;;;;;;5074630;23;20080;-80
2022/03/03 03:26:21;;;;;;;66.30;28.20;;;0.40;99.90;;;;;;5079989;22;20048;-81
2022/03/03 03:28:46;;;;;;;65.30;27.83;;;0.40;99.90;;;;;;5100995;22;20690;-80
2022/03/03 03:31:13;;;;;;;63.40;27.42;;;0.40;99.90;;;;;;5077586;23;20056;-82
2022/03/03 03:33:39;;;;;;;69.10;27.92;;;0.70;99.90;;;;;;5080370;23;20353;-81
2022/03/03 03:36:04;;;;;;;64.05;27.60;;;0.60;99.90;;;;;;5086238;23;20059;-80
2022/03/03 03:38:30;;;;;;;69.05;28.63;;;0.40;99.90;;;;;;5085680;22;20429;-80
2022/03/03 03:40:56;;;;;;;60.35;28.48;;;0.30;99.90;;;;;;5086086;23;20052;-80
2022/03/03 03:43:23;;;;;;;64.88;28.08;;;0.30;99.90;;;;;;5086547;22;20055;-80
2022/03/03 03:45:49;;;;;;;63.67;27.55;;;0.30;99.90;;;;;;5060323;23;20109;-80
2022/03/03 03:48:20;;;;;;;63.50;27.27;;;0.30;99.90;;;;;;5084757;23;20112;-81
2022/03/03 03:50:46;;;;;;;67.80;28.60;;;0.30;99.90;;;;;;5088724;22;20043;-80
2022/03/03 03:53:13;;;;;;;67.07;28.02;;;0.30;99.90;;;;;;5090341;22;20483;-80
2022/03/03 03:55:39;;;;;;;65.85;27.92;;;0.30;99.90;;;;;;5064586;22;20049;-80
2022/03/03 03:58:05;;;;;;;66.53;28.52;;;0.20;99.90;;;;;;5082705;22;20063;-80
2022/03/03 04:00:30;;;;;;;63.42;27.13;;;0.20;99.90;;;;;;5069639;22;20076;-80
2022/03/03 04:02:56;;;;;;;66.25;29.52;;;0.20;99.90;;;;;;5084157;22;20455;-80
2022/03/03 04:05:26;;;;;;;67.75;28.25;;;0.10;99.90;;;;;;5060154;23;20041;-80
2022/03/03 04:07:51;;;;;;;60.85;27.30;;;0.10;99.90;;;;;;5055539;22;20045;-80
2022/03/03 04:10:23;;;;;;;57.45;26.70;;;0.10;99.90;;;;;;5056852;23;20064;-81
2022/03/03 04:12:49;;;;;;;60.00;27.38;;;0.10;99.90;;;;;;5053389;22;20060;-80
2022/03/03 04:15:21;;;;;;;68.47;28.35;;;0.10;99.90;;;;;;5074791;23;20051;-80
2022/03/03 04:17:48;;;;;;;63.40;28.13;;;0.10;99.90;;;;;;5102150;22;20099;-81
2022/03/03 04:20:22;;;;;;;63.38;26.23;;;0.10;99.90;;;;;;5065168;23;20049;-81
2022/03/03 04:22:48;;;;;;;62.80;28.08;;;0.10;99.90;;;;;;5063189;22;20056;-80
2022/03/03 04:25:20;;;;;;;62.47;26.90;;;0.10;99.90;;;;;;5083413;23;20075;-81
2022/03/03 04:27:46;;;;;;;64.38;27.38;;;0.10;99.90;;;;;;5092835;23;20044;-80
2022/03/03 04:30:12;;;;;;;59.92;26.83;;;0.20;99.90;;;;;;5162437;22;20059;-80
2022/03/03 04:32:39;;;;;;;57.33;26.52;;;0.10;99.90;;;;;;5088122;22;20168;-80
2022/03/03 04:35:06;;;;;;;59.03;26.15;;;0.20;99.90;;;;;;5088219;23;20139;-80
2022/03/03 04:37:32;;;;;;;59.00;26.77;;;0.20;99.90;;;;;;5088607;22;20077;-81
2022/03/03 04:39:58;;;;;;;58.30;26.20;;;0.20;99.90;;;;;;5077749;23;20044;-80
2022/03/03 04:42:24;;;;;;;58.88;26.23;;;0.20;99.90;;;;;;5101287;23;20064;-81
2022/03/03 04:44:49;;;;;;;53.13;25.50;;;0.20;99.90;;;;;;5091750;23;20325;-80
2022/03/03 04:47:19;;;;;;;59.97;26.88;;;0.20;99.90;;;;;;5093334;23;20102;-81
2022/03/03 04:49:45;;;;;;;56.75;25.90;;;0.30;99.90;;;;;;5071761;23;20075;-80
2022/03/03 04:52:10;;;;;;;54.72;25.50;;;0.20;99.90;;;;;;5094980;22;20048;-80
2022/03/03 04:54:36;;;;;;;61.97;26.40;;;0.50;99.90;;;;;;5075040;22;20051;-81
2022/03/03 04:57:02;;;;;;;53.05;25.15;;;0.20;99.90;;;;;;5058223;23;20059;-80
2022/03/03 04:59:28;;;;;;;55.90;26.00;;;0.20;99.90;;;;;;5086317;22;20043;-80
2022/03/03 05:01:54;;;;;;;51.65;25.08;;;0.20;99.90;;;;;;5080538;23;20363;-80
2022/03/03 05:04:26;;;;;;;54.83;25.42;;;0.20;99.90;;;;;;5082153;22;20052;31
2022/03/03 05:06:52;;;;;;;55.78;25.25;;;0.10;99.90;;;;;;5068558;22;20399;-80
2022/03/03 05:09:18;;;;;;;53.47;25.30;;;0.10;99.90;;;;;;5067946;23;20128;-80
2022/03/03 05:11:44;;;;;;;50.88;24.90;;;0.10;99.90;;;;;;5071650;23;20078;-80
2022/03/03 05:14:10;;;;;;;56.08;25.38;;;0.10;99.90;;;;;;5075181;23;20079;-80
2022/03/03 05:16:36;;;;;;;54.95;24.50;;;0.10;99.90;;;;;;5079157;22;20047;-81
2022/03/03 05:19:02;;;;;;;54.70;25.80;;;0.10;99.90;;;;;;5098817;22;20058;-80
2022/03/03 05:21:28;;;;;;;55.45;25.83;;;0.10;99.90;;;;;;5083432;23;20052;-80
2022/03/03 05:23:54;;;;;;;56.78;25.55;;;0.10;99.90;;;;;;5074790;23;20048;-80
2022/03/03 05:26:24;;;;;;;54.30;24.50;;;0.50;99.90;;;;;;5094609;22;20048;-81
2022/03/03 05:28:49;;;;;;;51.00;23.85;;;0.10;99.90;;;;;;5076221;23;20641;-80
2022/03/03 05:31:18;;;;;;;54.88;24.23;;;0.10;99.90;;;;;;5095814;22;20048;-81
2022/03/03 05:33:44;;;;;;;49.63;25.42;;;0.10;99.90;;;;;;5070526;22;20135;-80
2022/03/03 05:36:11;;;;;;;53.35;23.83;;;0.10;99.90;;;;;;5084069;22;20135;-80
2022/03/03 05:38:40;;;;;;;55.35;24.95;;;0.00;99.90;;;;;;5077190;23;20055;-81
2022/03/03 05:41:06;;;;;;;50.25;23.38;;;0.10;99.90;;;;;;5084068;23;20041;-80
2022/03/03 05:43:33;;;;;;;52.45;24.02;;;0.10;99.90;;;;;;5084058;23;20505;-81
2022/03/03 05:45:59;;;;;;;51.42;24.38;;;0.10;99.90;;;;;;5088389;23;20044;-80
2022/03/03 05:48:31;;;;;;;50.08;24.10;;;0.10;99.90;;;;;;5075857;23;20553;-81
2022/03/03 05:50:57;;;;;;;50.72;24.05;;;0.10;99.90;;;;;;5089112;22;20139;-80
2022/03/03 05:53:23;;;;;;;50.85;24.15;;;0.00;99.90;;;;;;5098169;22;20072;-81
2022/03/03 05:55:52;;;;;;;50.80;24.98;;;0.10;99.90;;;;;;5052961;22;20114;-80
2022/03/03 05:58:21;;;;;;;53.42;25.08;;;0.40;99.90;;;;;;5070805;22;20040;-81
2022/03/03 06:00:54;;;;;;;54.10;25.27;;;0.00;99.90;;;;;;5069811;23;20040;-81
2022/03/03 06:03:30;;;;;;;51.85;24.25;;;0.00;99.90;;;;;;5104578;22;20110;-81
2022/03/03 06:06:04;;;;;;;50.45;24.05;;;-0.10;99.90;;;;;;5102529;22;20044;-81
2022/03/03 06:08:41;;;;;;;52.40;24.70;;;-0.10;99.90;;;;;;5093824;22;20190;-81
2022/03/03 06:11:16;;;;;;;54.55;24.55;;;0.00;99.90;;;;;;5089130;22;20491;-81
2022/03/03 06:13:47;;;;;;;53.53;25.98;;;-0.10;99.90;;;;;;5037745;22;20044;-81
2022/03/03 06:16:21;;;;;;;51.78;25.75;;;0.70;99.90;;;;;;5086664;23;20074;-81
2022/03/03 06:18:48;;;;;;;53.80;24.08;;;-0.20;99.90;;;;;;5074877;23;20060;-81
2022/03/03 06:21:20;;;;;;;52.92;24.27;;;-0.20;99.90;;;;;;5078887;23;20052;-81
2022/03/03 06:23:46;;;;;;;52.10;23.77;;;0.80;99.90;;;;;;5091127;23;20055;-81
2022/03/03 06:26:15;;;;;;;51.90;24.73;;;-0.20;99.90;;;;;;5093186;23;20119;-81
2022/03/03 06:28:41;;;;;;;51.22;24.90;;;-0.20;99.90;;;;;;5104142;22;20062;-81
2022/03/03 06:31:07;;;;;;;49.25;24.27;;;-0.20;99.90;;;;;;5089884;22;20076;-81
2022/03/03 06:33:34;;;;;;;54.22;25.08;;;-0.20;99.90;;;;;;5082224;23;20055;-81
2022/03/03 06:36:04;;;;;;;50.28;23.90;;;-0.20;99.90;;;;;;5071085;22;1120179;-81
2022/03/03 06:38:31;;;;;;;52.90;25.17;;;-0.20;99.90;;;;;;5105568;22;20044;-81
2022/03/03 06:40:59;;;;;;;49.75;24.98;;;-0.20;99.90;;;;;;5100442;22;20435;-81
2022/03/03 06:43:26;;;;;;;47.97;22.90;;;-0.20;99.90;;;;;;5097729;22;20147;-81
2022/03/03 06:45:52;;;;;;;49.72;23.35;;;0.00;99.90;;;;;;5087490;22;20060;-81
2022/03/03 06:48:18;;;;;;;48.20;23.50;;;0.30;99.90;;;;;;5079217;23;20506;-81
2022/03/03 06:50:44;;;;;;;50.97;23.98;;;-0.10;99.90;;;;;;5080450;22;20066;-81
2022/03/03 06:53:10;;;;;;;49.47;23.60;;;0.30;99.90;;;;;;5095709;22;20052;-81
2022/03/03 06:55:37;;;;;;;49.88;23.73;;;0.20;99.90;;;;;;5073869;22;20041;-81
2022/03/03 06:58:03;;;;;;;50.45;23.75;;;0.00;99.90;;;;;;5098569;22;20048;-81
2022/03/03 07:00:33;;;;;;;47.20;23.33;;;0.10;99.90;;;;;;5090152;22;20375;-81
2022/03/03 07:03:05;;;;;;;46.03;22.52;;;0.10;99.90;;;;;;5088034;23;20048;-81
2022/03/03 07:05:31;;;;;;;45.63;22.25;;;0.10;99.90;;;;;;5082557;22;20552;-81
2022/03/03 07:07:58;;;;;;;48.92;23.00;;;0.10;99.90;;;;;;5078966;23;20052;-81
2022/03/03 07:10:27;;;;;;;45.65;22.15;;;0.10;99.90;;;;;;5114078;22;20047;-81
2022/03/03 07:12:55;;;;;;;44.55;21.90;;;0.20;99.90;;;;;;5078585;23;20392;-81
2022/03/03 07:15:22;;;;;;;46.75;22.42;;;0.20;99.90;;;;;;5069478;23;20052;-81
2022/03/03 07:17:56;;;;;;;43.65;22.33;;;0.30;99.90;;;;;;5080322;23;20058;-81
2022/03/03 07:20:52;;;;;;;45.55;21.80;;;0.60;99.90;;;;;;5083746;22;20040;-81
2022/03/03 07:23:37;;;;;;;45.33;21.15;;;0.40;99.90;;;;;;5077438;23;20050;-81
2022/03/03 07:26:07;;;;;;;41.90;20.75;;;0.50;99.90;;;;;;5059202;23;20454;-81
2022/03/03 07:28:34;;;;;;;45.30;21.50;;;0.50;99.90;;;;;;5049085;22;20048;-80
2022/03/03 07:31:01;;;;;;;42.40;21.23;;;0.50;99.90;;;;;;5071483;22;20056;-80
2022/03/03 07:33:47;;;;;;;41.80;20.50;;;0.60;99.90;;;;;;5099995;22;20487;-81
2022/03/03 07:36:19;;;;;;;45.95;22.38;;;0.60;99.90;;;;;;5043222;23;20052;-81
2022/03/03 07:39:00;;;;;;;46.28;21.15;;;1.50;99.90;;;;;;5049307;22;20113;-80
2022/03/03 07:41:28;;;;;;;39.75;20.05;;;0.70;99.90;;;;;;5067295;22;20053;-81
2022/03/03 07:43:58;;;;;;;39.08;19.75;;;0.80;99.90;;;;;;5064108;28;20064;-81
2022/03/03 07:46:26;;;;;;;38.25;19.95;;;0.80;99.90;;;;;;5064920;28;20063;-81
2022/03/03 07:48:53;;;;;;;40.05;20.45;;;1.70;99.90;;;;;;5080181;28;20568;-81
2022/03/03 07:51:20;;;;;;;43.65;21.05;;;0.90;99.90;;;;;;5063908;28;20048;-81
2022/03/03 07:53:46;;;;;;;41.60;20.13;;;1.60;99.90;;;;;;5046380;28;20040;-81
2022/03/03 07:56:19;;;;;;;41.13;20.40;;;1.10;99.90;;;;;;5046593;28;20044;-81
2022/03/03 07:58:46;;;;;;;37.53;19.90;;;1.10;99.90;;;;;;5063931;28;20487;-81
2022/03/03 08:01:17;;;;;;;39.47;19.38;;;1.20;99.90;;;;;;5082122;28;20123;-81
2022/03/03 08:03:45;;;;;;;41.28;19.63;;;1.30;99.90;;;;;;5062967;28;20103;-81
2022/03/03 08:06:13;;;;;;;39.08;19.40;;;1.30;99.90;;;;;;5063986;28;20048;-81
2022/03/03 08:08:40;;;;;;;34.55;18.23;;;1.40;99.90;;;;;;5063452;28;20419;-81
2022/03/03 08:11:07;;;;;;;35.25;18.27;;;1.40;99.90;;;;;;5047042;28;20046;-81
2022/03/03 08:13:33;;;;;;;34.55;18.98;;;1.50;99.90;;;;;;5046993;28;20037;-81
2022/03/03 08:16:00;;;;;;;37.40;18.83;;;1.60;99.90;;;;;;5058432;23;20053;-81
2022/03/03 08:18:32;;;;;;;37.03;18.88;;;1.60;99.90;;;;;;5043136;28;20061;-81
2022/03/03 08:21:02;;;;;;;34.25;18.10;;;1.70;99.90;;;;;;5060192;28;20041;-81
2022/03/03 08:23:29;;;;;;;32.20;17.90;;;1.80;99.90;;;;;;5044989;28;20049;-82
2022/03/03 08:25:56;;;;;;;34.83;18.52;;;1.90;99.90;;;;;;5043450;28;20480;-82
2022/03/03 08:28:27;;;;;;;34.15;17.23;;;1.90;99.90;;;;;;5059856;28;20048;-82
2022/03/03 08:31:03;;;;;;;31.58;17.52;;;2.00;99.90;;;;;;5123057;22;20052;-82
2022/03/03 08:33:52;;;;;;;34.60;18.48;;;2.10;99.90;;;;;;5051446;23;20134;-82
2022/03/03 08:36:25;;;;;;;34.72;18.10;;;2.20;99.90;;;;;;5043609;28;20067;-82
2022/03/03 08:38:52;;;;;;;33.42;17.55;;;2.60;99.90;;;;;;5044035;28;20041;-82
2022/03/03 08:41:22;;;;;;;37.90;17.85;;;2.40;99.90;;;;;;5049553;28;20072;-82
2022/03/03 08:43:53;;;;;;;31.73;16.60;;;2.50;99.90;;;;;;5052683;28;20051;-82
2022/03/03 08:46:21;;;;;;;32.80;17.92;;;2.60;99.90;;;;;;5062080;22;20052;31
2022/03/03 08:48:49;;;;;;;30.90;16.10;;;2.70;99.90;;;;;;5006010;28;20049;-82
2022/03/03 08:51:16;;;;;;;30.27;16.27;;;2.80;99.90;;;;;;5041511;23;20056;-82
2022/03/03 08:53:41;;;;;;;29.77;15.52;;;2.80;99.90;;;;;;5074347;22;20101;-82
2022/03/03 08:56:08;;;;;;;28.70;15.40;;;2.90;99.90;;;;;;5085556;28;20044;-82
2022/03/03 08:58:35;;;;;;;31.00;16.23;;;3.30;99.90;;;;;;5104275;28;20477;-82
2022/03/03 09:01:00;;;;;;;32.53;15.90;;;3.20;99.90;;;;;;5104750;28;20099;-82
2022/03/03 09:03:26;;;;;;;29.02;15.65;;;3.30;99.90;;;;;;5091035;23;20075;-82
2022/03/03 09:05:54;;;;;;;31.80;15.88;;;3.40;99.90;;;;;;5101058;28;20056;-82
2022/03/03 09:08:20;;;;;;;30.25;15.82;;;3.90;99.90;;;;;;5096084;28;20048;-82
2022/03/03 09:10:46;;;;;;;28.15;15.75;;;3.60;99.90;;;;;;5083586;28;20044;-82
2022/03/03 09:13:11;;;;;;;29.95;16.40;;;3.70;99.90;;;;;;5094363;28;20100;-82
2022/03/03 09:15:37;;;;;;;26.33;15.18;;;4.50;99.90;;;;;;5083080;28;20046;-82
2022/03/03 09:18:03;;;;;;;28.00;15.77;;;4.60;99.90;;;;;;5076320;28;20048;-82
2022/03/03 09:20:29;;;;;;;27.05;15.25;;;4.40;99.90;;;;;;5100758;28;20083;-82
2022/03/03 09:22:55;;;;;;;26.67;15.25;;;4.30;99.90;;;;;;5067879;28;20060;-82
2022/03/03 09:25:21;;;;;;;27.35;15.30;;;4.30;99.90;;;;;;5083913;28;20394;-82
2022/03/03 09:27:46;;;;;;;25.45;14.20;;;4.90;99.90;;;;;;5084493;28;20044;-82
2022/03/03 09:30:13;;;;;;;29.73;15.85;;;4.60;99.90;;;;;;5094093;28;20081;-82
2022/03/03 09:32:40;;;;;;;24.98;14.80;;;4.80;99.90;;;;;;5083721;28;20040;-83
2022/03/03 09:35:06;;;;;;;26.63;14.55;;;4.80;99.90;;;;;;5077042;28;20059;-83
2022/03/03 09:37:32;;;;;;;26.00;15.35;;;4.90;99.90;;;;;;5083390;28;20398;-82
2022/03/03 09:39:58;;;;;;;26.20;15.20;;;5.00;99.90;;;;;;5092049;28;20050;-83
2022/03/03 09:42:30;;;;;;;27.33;14.45;;;5.60;99.90;;;;;;5100319;28;20048;-83
2022/03/03 09:44:55;;;;;;;25.23;14.25;;;5.50;99.90;;;;;;5101696;28;20075;-82
2022/03/03 09:47:21;;;;;;;22.67;14.15;;;5.20;99.90;;;;;;5078149;28;20047;-82
2022/03/03 09:49:47;;;;;;;24.27;13.55;;;5.30;99.90;;;;;;5082559;28;20040;-83
2022/03/03 09:52:19;;;;;;;23.00;13.85;;;5.60;99.90;;;;;;5076636;28;20056;-83
2022/03/03 09:54:49;;;;;;;22.52;13.63;;;6.10;99.90;;;;;;5099826;28;20098;-83
2022/03/03 09:57:16;;;;;;;23.55;14.07;;;5.60;99.90;;;;;;5077043;28;20044;-83
2022/03/03 09:59:43;;;;;;;22.23;13.93;;;5.70;99.90;;;;;;5100954;28;20158;-82
2022/03/03 10:02:09;;;;;;;23.02;14.07;;;6.00;99.90;;;;;;5081528;28;20087;-82
2022/03/03 10:04:35;;;;;;;23.67;13.88;;;6.00;99.90;;;;;;5108187;28;20055;-83
2022/03/03 10:07:05;;;;;;;22.60;13.25;;;6.40;99.90;;;;;;5109097;22;20081;-83
2022/03/03 10:09:32;;;;;;;21.25;13.57;;;6.50;99.90;;;;;;5110441;22;20091;-83
2022/03/03 10:12:03;;;;;;;22.83;13.00;;;6.20;99.90;;;;;;5072923;28;20479;-82
2022/03/03 10:14:36;;;;;;;22.27;13.73;;;6.40;99.90;;;;;;5087414;23;20052;-83
2022/03/03 10:17:05;;;;;;;20.02;12.82;;;7.00;99.90;;;;;;5090336;22;20052;-83
2022/03/03 10:19:32;;;;;;;24.67;13.93;;;6.60;99.90;;;;;;5073774;22;20048;-82
2022/03/03 10:21:59;;;;;;;19.42;12.30;;;6.60;99.90;;;;;;5067107;23;20158;-82
2022/03/03 10:24:29;;;;;;;19.58;12.30;;;7.30;99.90;;;;;;5090478;22;20051;-83
2022/03/03 10:27:04;;;;;;;20.50;12.60;;;6.90;99.90;;;;;;5083338;28;20048;-83
2022/03/03 10:29:30;;;;;;;19.83;12.97;;;7.50;99.90;;;;;;5071324;22;20048;-83
2022/03/03 10:31:58;;;;;;;22.35;12.27;;;7.40;99.90;;;;;;5056383;28;20059;-83
2022/03/03 10:34:30;;;;;;;20.13;12.52;;;7.60;99.90;;;;;;5064335;28;20062;-82
2022/03/03 10:37:01;;;;;;;19.50;11.70;;;7.20;99.90;;;;;;5075872;23;20083;-83
2022/03/03 10:39:42;;;;;;;20.73;12.43;;;7.40;99.90;;;;;;5091394;22;20098;-82
2022/03/03 10:42:15;;;;;;;21.67;12.50;;;7.50;99.90;;;;;;5036090;28;20483;-82
2022/03/03 10:44:41;;;;;;;19.05;12.30;;;7.40;99.90;;;;;;5046084;28;20049;-83
2022/03/03 10:47:16;;;;;;;18.67;12.20;;;7.50;99.90;;;;;;5048533;28;20410;-82
2022/03/03 10:49:43;;;;;;;20.75;12.70;;;7.50;99.90;;;;;;5072312;23;20067;-82
2022/03/03 10:52:17;;;;;;;17.92;11.88;;;8.00;99.90;;;;;;5068224;28;20135;-82
2022/03/03 10:54:51;;;;;;;17.90;11.63;;;8.00;99.90;;;;;;5066986;28;20097;-83
2022/03/03 10:57:29;;;;;;;17.17;11.68;;;8.10;99.90;;;;;;5070937;23;20057;-83
2022/03/03 11:00:03;;;;;;;17.50;12.05;;;7.90;97.70;;;;;;5047573;28;20045;-83
2022/03/03 11:02:29;;;;;;;17.65;11.55;;;7.90;99.90;;;;;;5045965;28;20055;-83
2022/03/03 11:04:56;;;;;;;19.25;11.73;;;8.30;99.90;;;;;;5046506;28;20076;-83
2022/03/03 11:07:23;;;;;;;17.92;11.48;;;8.60;99.90;;;;;;5063161;28;20506;-83
2022/03/03 11:09:51;;;;;;;18.05;11.73;;;8.40;99.90;;;;;;5063355;28;20071;-83
2022/03/03 11:12:19;;;;;;;18.83;11.52;;;8.70;99.90;;;;;;5045717;28;20032;-83
2022/03/03 11:14:45;;;;;;;16.92;11.32;;;8.50;99.90;;;;;;5063063;28;20048;-83
2022/03/03 11:17:11;;;;;;;17.15;11.23;;;8.60;99.90;;;;;;5047041;28;20390;-83
2022/03/03 11:19:41;;;;;;;18.55;11.80;;;8.60;98.20;;;;;;5049912;28;20045;-83
2022/03/03 11:22:07;;;;;;;17.63;11.70;;;8.70;99.40;;;;;;5050208;28;20055;-83
2022/03/03 11:24:37;;;;;;;18.23;11.70;;;9.20;99.90;;;;;;5084961;28;20045;-83
2022/03/03 11:27:05;;;;;;;17.90;11.98;;;8.80;97.20;;;;;;5049851;28;20072;-83
2022/03/03 11:29:32;;;;;;;16.17;11.13;;;9.00;99.90;;;;;;5050692;28;20043;-82
2022/03/03 11:32:06;;;;;;;17.23;11.35;;;9.60;99.90;;;;;;5061008;23;20048;-83
2022/03/03 11:34:32;;;;;;;18.00;10.85;;;9.20;99.90;;;;;;5070754;28;20048;-83
2022/03/03 11:37:17;;;;;;;15.75;10.98;;;9.90;99.90;;;;;;5087608;28;20055;-83
2022/03/03 11:40:12;;;;;;;16.88;11.13;;;9.50;98.20;;;;;;5072058;28;20048;-83
2022/03/03 11:42:38;;;;;;;16.77;11.32;;;9.60;92.20;;;;;;5069070;28;20055;-80
2022/03/03 11:45:13;;;;;;;16.70;10.65;;;9.70;96.80;;;;;;5105230;28;20109;-82
2022/03/03 11:47:42;;;;;;;14.55;10.15;;;9.70;93.30;;;;;;5070041;28;20043;-83
2022/03/03 11:50:12;;;;;;;14.75;9.63;;;9.90;90.10;;;;;;5074259;28;20055;-83
2022/03/03 11:52:39;;;;;;;14.65;9.88;;;10.20;90.40;;;;;;5082165;23;20040;-81
2022/03/03 11:55:27;;;;;;;14.15;9.38;;;9.90;88.80;;;;;;5073455;28;20083;-81
2022/03/03 11:57:56;;;;;;;13.80;9.23;;;10.50;80.00;;;;;;5057122;28;20059;-81
2022/03/03 12:00:22;;;;;;;13.90;9.32;;;10.20;85.70;;;;;;5086462;28;20415;-81
2022/03/03 12:03:22;;;;;;;14.27;9.68;;;10.70;83.60;;;;;;5085976;28;20040;-82
2022/03/03 12:06:05;;;;;;;13.18;9.18;;;10.20;74.30;;;;;;5069211;28;20509;-82
2022/03/03 12:08:34;;;;;;;13.18;8.82;;;10.30;78.00;;;;;;5069210;28;20041;-82
2022/03/03 12:11:05;;;;;;;12.57;8.32;;;10.30;79.70;;;;;;5104387;28;20055;-81
2022/03/03 12:13:32;;;;;;;12.80;8.93;;;10.50;75.50;;;;;;5085985;28;20051;-83
2022/03/03 12:16:15;;;;;;;12.07;8.13;;;10.60;74.30;;;;;;5085215;28;20044;-83
2022/03/03 12:18:42;;;;;;;14.23;7.75;;;10.80;67.80;;;;;;5069172;28;20048;-83
2022/03/03 12:21:32;;;;;;;10.05;7.43;;;10.90;72.40;;;;;;5069195;28;20091;-83
2022/03/03 12:24:33;;;;;;;11.70;7.53;;;11.00;67.80;;;;;;5103204;28;20138;-84
2022/03/03 12:27:01;;;;;;;11.13;7.20;;;11.20;66.70;;;;;;4988751;28;20128;-83
2022/03/03 12:29:42;;;;;;;11.55;7.60;;;11.50;71.80;;;;;;5019987;28;20123;-83
2022/03/03 12:32:28;;;;;;;10.43;6.90;;;11.60;67.00;;;;;;5021318;28;20056;-83
2022/03/03 12:34:58;;;;;;;12.32;7.40;;;11.80;68.70;;;;;;4988830;28;20057;-83
2022/03/03 12:37:23;;;;;;;9.73;6.80;;;12.40;71.30;;;;;;5003603;28;20072;-83
2022/03/03 12:39:51;;;;;;;12.02;6.93;;;12.20;70.50;;;;;;5003925;28;20093;-83
2022/03/03 12:42:24;;;;;;;10.07;7.15;;;12.30;69.70;;;;;;5004185;28;20218;-83
2022/03/03 12:44:51;;;;;;;12.32;7.50;;;12.60;68.80;;;;;;5004486;28;20053;-83
2022/03/03 12:47:28;;;;;;;11.70;7.47;;;12.90;70.90;;;;;;5005248;28;20392;-83
2022/03/03 12:49:54;;;;;;;13.15;7.40;;;13.00;71.70;;;;;;5003925;28;20057;-83